sensor_id;sensor_type;location;lat;lon;timestamp;P1;durP1;ratioP1;P2;durP2;ratioP2
7255;SDS011;3669;49.200;9.242;2023-09-19T00:01:44;1.20;;;1.10;;
7255;SDS011;3669;49.200;9.242;2023-09-19T00:04:11;1.80;;;1.13;;
7255;SDS011;3669;49.200;9.242;2023-09-19T00:06:40;1.58;;;1.27;;
7255;SDS011;3669;49.200;9.242;2023-09-19T00:09:08;1.13;;;1.13;;
7255;SDS011;3669;49.200;9.242;2023-09-19T00:11:36;10.30;;;9.73;;
7255;SDS011;3669;49.200;9.242;2023-09-19T00:14:04;19.08;;;18.23;;
7255;SDS011;3669;49.200;9.242;2023-09-19T00:16:34;10.73;;;10.23;;
7255;SDS011;3669;49.200;9.242;2023-09-19T00:19:02;21.50;;;20.58;;
7255;SDS011;3669;49.200;9.242;2023-09-19T00:21:31;14.35;;;13.70;;
7255;SDS011;3669;49.200;9.242;2023-09-19T00:23:58;16.20;;;15.43;;
7255;SDS011;3669;49.200;9.242;2023-09-19T00:26:24;13.50;;;12.82;;
7255;SDS011;3669;49.200;9.242;2023-09-19T00:28:58;2.72;;;2.13;;
7255;SDS011;3669;49.200;9.242;2023-09-19T00:31:31;2.00;;;1.25;;
7255;SDS011;3669;49.200;9.242;2023-09-19T00:33:58;1.35;;;1.02;;
7255;SDS011;3669;49.200;9.242;2023-09-19T00:36:32;2.35;;;1.35;;
7255;SDS011;3669;49.200;9.242;2023-09-19T00:38:59;1.10;;;0.98;;
7255;SDS011;3669;49.200;9.242;2023-09-19T00:41:26;1.23;;;1.10;;
7255;SDS011;3669;49.200;9.242;2023-09-19T00:43:56;1.02;;;0.93;;
7255;SDS011;3669;49.200;9.242;2023-09-19T00:46:23;1.58;;;1.08;;
7255;SDS011;3669;49.200;9.242;2023-09-19T00:48:51;3.22;;;1.45;;
7255;SDS011;3669;49.200;9.242;2023-09-19T00:51:18;3.22;;;1.50;;
7255;SDS011;3669;49.200;9.242;2023-09-19T00:53:48;1.85;;;1.20;;
7255;SDS011;3669;49.200;9.242;2023-09-19T00:56:15;1.80;;;1.40;;
7255;SDS011;3669;49.200;9.242;2023-09-19T00:58:44;1.33;;;1.20;;
7255;SDS011;3669;49.200;9.242;2023-09-19T01:01:12;2.75;;;1.40;;
7255;SDS011;3669;49.200;9.242;2023-09-19T01:03:41;1.30;;;1.20;;
7255;SDS011;3669;49.200;9.242;2023-09-19T01:06:09;1.10;;;1.00;;
7255;SDS011;3669;49.200;9.242;2023-09-19T01:08:36;1.40;;;1.30;;
7255;SDS011;3669;49.200;9.242;2023-09-19T01:14:03;1.30;;;1.20;;
7255;SDS011;3669;49.200;9.242;2023-09-19T01:28:03;1.48;;;1.38;;
7255;SDS011;3669;49.200;9.242;2023-09-19T01:30:09;1.52;;;1.40;;
7255;SDS011;3669;49.200;9.242;2023-09-19T01:32:37;1.33;;;1.23;;
7255;SDS011;3669;49.200;9.242;2023-09-19T01:35:07;1.25;;;1.15;;
7255;SDS011;3669;49.200;9.242;2023-09-19T01:37:39;1.77;;;1.42;;
7255;SDS011;3669;49.200;9.242;2023-09-19T01:40:08;2.25;;;1.30;;
7255;SDS011;3669;49.200;9.242;2023-09-19T01:43:26;1.90;;;1.38;;
7255;SDS011;3669;49.200;9.242;2023-09-19T01:56:09;2.85;;;1.70;;
7255;SDS011;3669;49.200;9.242;2023-09-19T01:58:41;1.60;;;1.50;;
7255;SDS011;3669;49.200;9.242;2023-09-19T02:01:08;1.67;;;1.45;;
7255;SDS011;3669;49.200;9.242;2023-09-19T02:03:38;2.63;;;1.70;;
7255;SDS011;3669;49.200;9.242;2023-09-19T02:06:06;27.90;;;26.45;;
7255;SDS011;3669;49.200;9.242;2023-09-19T02:08:37;27.60;;;26.23;;
7255;SDS011;3669;49.200;9.242;2023-09-19T02:11:05;25.85;;;24.05;;
7255;SDS011;3669;49.200;9.242;2023-09-19T02:13:32;28.95;;;27.52;;
7255;SDS011;3669;49.200;9.242;2023-09-19T02:15:59;9.88;;;9.43;;
7255;SDS011;3669;49.200;9.242;2023-09-19T02:18:25;3.03;;;2.85;;
7255;SDS011;3669;49.200;9.242;2023-09-19T02:20:54;1.88;;;1.40;;
7255;SDS011;3669;49.200;9.242;2023-09-19T02:23:22;2.08;;;1.27;;
7255;SDS011;3669;49.200;9.242;2023-09-19T02:25:53;1.70;;;1.60;;
7255;SDS011;3669;49.200;9.242;2023-09-19T02:28:22;2.05;;;1.55;;
7255;SDS011;3669;49.200;9.242;2023-09-19T02:30:49;2.55;;;1.65;;
7255;SDS011;3669;49.200;9.242;2023-09-19T02:33:16;1.65;;;1.35;;
7255;SDS011;3669;49.200;9.242;2023-09-19T02:35:44;2.00;;;1.42;;
7255;SDS011;3669;49.200;9.242;2023-09-19T02:38:12;1.63;;;1.23;;
7255;SDS011;3669;49.200;9.242;2023-09-19T02:40:41;1.98;;;1.67;;
7255;SDS011;3669;49.200;9.242;2023-09-19T02:43:09;1.50;;;1.40;;
7255;SDS011;3669;49.200;9.242;2023-09-19T02:45:36;2.17;;;1.77;;
7255;SDS011;3669;49.200;9.242;2023-09-19T02:48:03;1.60;;;1.50;;
7255;SDS011;3669;49.200;9.242;2023-09-19T02:50:30;1.50;;;1.40;;
7255;SDS011;3669;49.200;9.242;2023-09-19T02:52:59;1.80;;;1.50;;
7255;SDS011;3669;49.200;9.242;2023-09-19T02:55:26;1.60;;;1.50;;
7255;SDS011;3669;49.200;9.242;2023-09-19T02:57:54;1.98;;;1.58;;
7255;SDS011;3669;49.200;9.242;2023-09-19T03:00:21;2.13;;;1.48;;
7255;SDS011;3669;49.200;9.242;2023-09-19T03:02:49;2.08;;;1.50;;
7255;SDS011;3669;49.200;9.242;2023-09-19T03:05:16;1.40;;;1.30;;
7255;SDS011;3669;49.200;9.242;2023-09-19T03:07:43;1.50;;;1.40;;
7255;SDS011;3669;49.200;9.242;2023-09-19T03:10:12;3.83;;;1.65;;
7255;SDS011;3669;49.200;9.242;2023-09-19T03:12:41;1.70;;;1.55;;
7255;SDS011;3669;49.200;9.242;2023-09-19T03:15:09;3.53;;;1.50;;
7255;SDS011;3669;49.200;9.242;2023-09-19T03:17:36;1.98;;;1.70;;
7255;SDS011;3669;49.200;9.242;2023-09-19T03:20:03;1.67;;;1.50;;
7255;SDS011;3669;49.200;9.242;2023-09-19T03:22:34;2.08;;;1.30;;
7255;SDS011;3669;49.200;9.242;2023-09-19T03:25:02;1.90;;;1.60;;
7255;SDS011;3669;49.200;9.242;2023-09-19T03:27:34;2.05;;;1.45;;
7255;SDS011;3669;49.200;9.242;2023-09-19T03:30:03;1.65;;;1.45;;
7255;SDS011;3669;49.200;9.242;2023-09-19T03:32:46;1.75;;;1.50;;
7255;SDS011;3669;49.200;9.242;2023-09-19T03:35:15;1.73;;;1.60;;
7255;SDS011;3669;49.200;9.242;2023-09-19T03:37:43;1.63;;;1.48;;
7255;SDS011;3669;49.200;9.242;2023-09-19T03:40:10;1.70;;;1.60;;
7255;SDS011;3669;49.200;9.242;2023-09-19T03:42:41;1.75;;;1.63;;
7255;SDS011;3669;49.200;9.242;2023-09-19T03:45:08;2.17;;;1.40;;
7255;SDS011;3669;49.200;9.242;2023-09-19T03:47:45;1.60;;;1.50;;
7255;SDS011;3669;49.200;9.242;2023-09-19T03:50:16;1.67;;;1.30;;
7255;SDS011;3669;49.200;9.242;2023-09-19T03:52:46;2.10;;;1.55;;
7255;SDS011;3669;49.200;9.242;2023-09-19T03:55:13;1.73;;;1.50;;
7255;SDS011;3669;49.200;9.242;2023-09-19T03:57:40;3.10;;;1.60;;
7255;SDS011;3669;49.200;9.242;2023-09-19T04:00:07;1.77;;;1.38;;
7255;SDS011;3669;49.200;9.242;2023-09-19T04:02:38;1.90;;;1.70;;
7255;SDS011;3669;49.200;9.242;2023-09-19T04:05:06;1.98;;;1.60;;
7255;SDS011;3669;49.200;9.242;2023-09-19T04:07:34;3.05;;;1.77;;
7255;SDS011;3669;49.200;9.242;2023-09-19T04:10:00;2.17;;;1.70;;
7255;SDS011;3669;49.200;9.242;2023-09-19T04:12:28;2.28;;;2.08;;
7255;SDS011;3669;49.200;9.242;2023-09-19T04:14:55;3.08;;;1.98;;
7255;SDS011;3669;49.200;9.242;2023-09-19T04:17:22;2.85;;;1.60;;
7255;SDS011;3669;49.200;9.242;2023-09-19T04:19:49;1.73;;;1.63;;
7255;SDS011;3669;49.200;9.242;2023-09-19T04:22:17;1.80;;;1.70;;
7255;SDS011;3669;49.200;9.242;2023-09-19T04:24:44;2.75;;;1.60;;
7255;SDS011;3669;49.200;9.242;2023-09-19T04:27:11;3.60;;;1.73;;
7255;SDS011;3669;49.200;9.242;2023-09-19T04:29:41;2.05;;;1.85;;
7255;SDS011;3669;49.200;9.242;2023-09-19T04:32:08;2.70;;;1.88;;
7255;SDS011;3669;49.200;9.242;2023-09-19T04:34:36;3.25;;;1.80;;
7255;SDS011;3669;49.200;9.242;2023-09-19T04:37:07;2.30;;;1.70;;
7255;SDS011;3669;49.200;9.242;2023-09-19T04:39:34;2.33;;;2.10;;
7255;SDS011;3669;49.200;9.242;2023-09-19T04:42:01;1.70;;;1.58;;
7255;SDS011;3669;49.200;9.242;2023-09-19T04:44:29;1.70;;;1.60;;
7255;SDS011;3669;49.200;9.242;2023-09-19T04:46:56;1.83;;;1.73;;
7255;SDS011;3669;49.200;9.242;2023-09-19T04:49:25;1.85;;;1.73;;
7255;SDS011;3669;49.200;9.242;2023-09-19T04:51:52;11.10;;;10.57;;
7255;SDS011;3669;49.200;9.242;2023-09-19T04:54:19;21.77;;;20.60;;
7255;SDS011;3669;49.200;9.242;2023-09-19T04:56:46;27.23;;;25.90;;
7255;SDS011;3669;49.200;9.242;2023-09-19T04:59:13;23.20;;;21.95;;
7255;SDS011;3669;49.200;9.242;2023-09-19T05:01:41;23.10;;;21.88;;
7255;SDS011;3669;49.200;9.242;2023-09-19T05:04:08;21.05;;;20.00;;
7255;SDS011;3669;49.200;9.242;2023-09-19T05:06:35;5.60;;;5.15;;
7255;SDS011;3669;49.200;9.242;2023-09-19T05:09:02;2.58;;;1.85;;
7255;SDS011;3669;49.200;9.242;2023-09-19T05:11:31;2.25;;;2.00;;
7255;SDS011;3669;49.200;9.242;2023-09-19T05:13:59;3.70;;;2.10;;
7255;SDS011;3669;49.200;9.242;2023-09-19T05:16:29;2.15;;;1.95;;
7255;SDS011;3669;49.200;9.242;2023-09-19T05:19:01;3.40;;;1.80;;
7255;SDS011;3669;49.200;9.242;2023-09-19T05:21:28;2.28;;;1.90;;
7255;SDS011;3669;49.200;9.242;2023-09-19T05:23:55;2.10;;;1.90;;
7255;SDS011;3669;49.200;9.242;2023-09-19T05:26:23;2.47;;;1.73;;
7255;SDS011;3669;49.200;9.242;2023-09-19T05:28:50;2.33;;;1.77;;
7255;SDS011;3669;49.200;9.242;2023-09-19T05:31:18;2.53;;;2.00;;
7255;SDS011;3669;49.200;9.242;2023-09-19T05:33:46;3.15;;;1.90;;
7255;SDS011;3669;49.200;9.242;2023-09-19T05:36:13;2.88;;;1.80;;
7255;SDS011;3669;49.200;9.242;2023-09-19T05:38:42;2.50;;;1.83;;
7255;SDS011;3669;49.200;9.242;2023-09-19T05:41:10;2.78;;;1.88;;
7255;SDS011;3669;49.200;9.242;2023-09-19T05:43:39;2.95;;;2.25;;
7255;SDS011;3669;49.200;9.242;2023-09-19T05:46:07;4.43;;;2.20;;
7255;SDS011;3669;49.200;9.242;2023-09-19T05:48:34;2.28;;;1.90;;
7255;SDS011;3669;49.200;9.242;2023-09-19T05:51:01;3.47;;;2.10;;
7255;SDS011;3669;49.200;9.242;2023-09-19T05:53:29;2.20;;;1.98;;
7255;SDS011;3669;49.200;9.242;2023-09-19T05:55:56;2.78;;;1.95;;
7255;SDS011;3669;49.200;9.242;2023-09-19T05:58:27;2.40;;;1.85;;
7255;SDS011;3669;49.200;9.242;2023-09-19T06:00:54;1.98;;;1.80;;
7255;SDS011;3669;49.200;9.242;2023-09-19T06:03:21;2.05;;;1.85;;
7255;SDS011;3669;49.200;9.242;2023-09-19T06:05:49;3.78;;;1.85;;
7255;SDS011;3669;49.200;9.242;2023-09-19T06:08:17;2.40;;;2.00;;
7255;SDS011;3669;49.200;9.242;2023-09-19T06:10:44;2.55;;;1.98;;
7255;SDS011;3669;49.200;9.242;2023-09-19T06:13:12;2.25;;;1.92;;
7255;SDS011;3669;49.200;9.242;2023-09-19T06:15:40;3.15;;;1.90;;
7255;SDS011;3669;49.200;9.242;2023-09-19T06:18:10;2.40;;;2.03;;
7255;SDS011;3669;49.200;9.242;2023-09-19T06:20:44;2.58;;;2.08;;
7255;SDS011;3669;49.200;9.242;2023-09-19T06:23:11;4.80;;;2.15;;
7255;SDS011;3669;49.200;9.242;2023-09-19T06:25:38;2.80;;;2.30;;
7255;SDS011;3669;49.200;9.242;2023-09-19T06:28:06;4.85;;;2.33;;
7255;SDS011;3669;49.200;9.242;2023-09-19T06:30:34;2.60;;;2.00;;
7255;SDS011;3669;49.200;9.242;2023-09-19T06:33:01;2.33;;;2.08;;
7255;SDS011;3669;49.200;9.242;2023-09-19T06:35:30;3.97;;;2.40;;
7255;SDS011;3669;49.200;9.242;2023-09-19T06:37:58;2.72;;;2.05;;
7255;SDS011;3669;49.200;9.242;2023-09-19T06:40:25;2.10;;;1.90;;
7255;SDS011;3669;49.200;9.242;2023-09-19T06:42:53;2.28;;;1.98;;
7255;SDS011;3669;49.200;9.242;2023-09-19T06:45:22;3.75;;;2.45;;
7255;SDS011;3669;49.200;9.242;2023-09-19T06:47:53;3.08;;;2.13;;
7255;SDS011;3669;49.200;9.242;2023-09-19T06:50:23;2.25;;;2.05;;
7255;SDS011;3669;49.200;9.242;2023-09-19T06:52:51;3.05;;;2.35;;
7255;SDS011;3669;49.200;9.242;2023-09-19T06:55:19;3.05;;;2.30;;
7255;SDS011;3669;49.200;9.242;2023-09-19T06:57:47;2.53;;;2.17;;
7255;SDS011;3669;49.200;9.242;2023-09-19T07:00:14;3.60;;;2.33;;
7255;SDS011;3669;49.200;9.242;2023-09-19T07:02:42;2.47;;;2.28;;
7255;SDS011;3669;49.200;9.242;2023-09-19T07:05:09;2.65;;;2.00;;
7255;SDS011;3669;49.200;9.242;2023-09-19T07:07:36;3.30;;;2.30;;
7255;SDS011;3669;49.200;9.242;2023-09-19T07:10:03;3.03;;;2.20;;
7255;SDS011;3669;49.200;9.242;2023-09-19T07:12:39;3.20;;;2.00;;
7255;SDS011;3669;49.200;9.242;2023-09-19T07:15:07;2.63;;;2.42;;
7255;SDS011;3669;49.200;9.242;2023-09-19T07:17:35;2.92;;;2.28;;
7255;SDS011;3669;49.200;9.242;2023-09-19T07:20:02;3.35;;;2.80;;
7255;SDS011;3669;49.200;9.242;2023-09-19T07:22:34;3.38;;;3.08;;
7255;SDS011;3669;49.200;9.242;2023-09-19T07:25:05;5.53;;;2.70;;
7255;SDS011;3669;49.200;9.242;2023-09-19T07:27:32;3.38;;;2.97;;
7255;SDS011;3669;49.200;9.242;2023-09-19T07:29:59;3.40;;;3.05;;
7255;SDS011;3669;49.200;9.242;2023-09-19T07:32:26;3.80;;;3.17;;
7255;SDS011;3669;49.200;9.242;2023-09-19T07:34:53;4.43;;;3.10;;
7255;SDS011;3669;49.200;9.242;2023-09-19T07:37:20;5.47;;;3.10;;
7255;SDS011;3669;49.200;9.242;2023-09-19T07:39:47;3.28;;;2.92;;
7255;SDS011;3669;49.200;9.242;2023-09-19T07:42:15;8.93;;;8.43;;
7255;SDS011;3669;49.200;9.242;2023-09-19T07:44:43;7.13;;;6.70;;
7255;SDS011;3669;49.200;9.242;2023-09-19T07:47:16;7.88;;;7.38;;
7255;SDS011;3669;49.200;9.242;2023-09-19T07:49:46;19.92;;;18.83;;
7255;SDS011;3669;49.200;9.242;2023-09-19T07:52:13;24.48;;;23.27;;
7255;SDS011;3669;49.200;9.242;2023-09-19T07:54:41;26.33;;;24.98;;
7255;SDS011;3669;49.200;9.242;2023-09-19T07:57:10;21.27;;;20.23;;
7255;SDS011;3669;49.200;9.242;2023-09-19T07:59:37;21.55;;;20.30;;
7255;SDS011;3669;49.200;9.242;2023-09-19T08:02:05;11.40;;;10.70;;
7255;SDS011;3669;49.200;9.242;2023-09-19T08:04:34;5.25;;;4.13;;
7255;SDS011;3669;49.200;9.242;2023-09-19T08:07:02;4.05;;;2.97;;
7255;SDS011;3669;49.200;9.242;2023-09-19T08:09:30;3.08;;;2.53;;
7255;SDS011;3669;49.200;9.242;2023-09-19T08:11:59;6.10;;;2.58;;
7255;SDS011;3669;49.200;9.242;2023-09-19T08:14:30;3.13;;;2.50;;
7255;SDS011;3669;49.200;9.242;2023-09-19T08:16:59;3.08;;;2.50;;
7255;SDS011;3669;49.200;9.242;2023-09-19T08:19:26;5.18;;;2.58;;
7255;SDS011;3669;49.200;9.242;2023-09-19T08:21:57;2.75;;;2.55;;
7255;SDS011;3669;49.200;9.242;2023-09-19T08:24:25;3.03;;;2.38;;
7255;SDS011;3669;49.200;9.242;2023-09-19T08:26:54;2.70;;;2.38;;
7255;SDS011;3669;49.200;9.242;2023-09-19T08:29:22;3.67;;;2.45;;
7255;SDS011;3669;49.200;9.242;2023-09-19T08:31:57;4.80;;;2.60;;
7255;SDS011;3669;49.200;9.242;2023-09-19T08:34:24;3.22;;;2.28;;
7255;SDS011;3669;49.200;9.242;2023-09-19T08:36:52;2.53;;;1.90;;
7255;SDS011;3669;49.200;9.242;2023-09-19T08:39:24;2.35;;;2.15;;
7255;SDS011;3669;49.200;9.242;2023-09-19T08:42:00;2.65;;;2.20;;
7255;SDS011;3669;49.200;9.242;2023-09-19T08:44:28;3.53;;;2.20;;
7255;SDS011;3669;49.200;9.242;2023-09-19T08:47:00;2.65;;;1.92;;
7255;SDS011;3669;49.200;9.242;2023-09-19T08:49:36;2.85;;;2.20;;
7255;SDS011;3669;49.200;9.242;2023-09-19T08:52:07;3.10;;;2.08;;
7255;SDS011;3669;49.200;9.242;2023-09-19T08:54:37;2.67;;;2.10;;
7255;SDS011;3669;49.200;9.242;2023-09-19T08:57:07;3.15;;;1.92;;
7255;SDS011;3669;49.200;9.242;2023-09-19T08:59:37;2.20;;;1.77;;
7255;SDS011;3669;49.200;9.242;2023-09-19T09:02:12;2.58;;;2.00;;
7255;SDS011;3669;49.200;9.242;2023-09-19T09:04:41;2.20;;;2.00;;
7255;SDS011;3669;49.200;9.242;2023-09-19T09:07:12;2.58;;;2.05;;
7255;SDS011;3669;49.200;9.242;2023-09-19T09:09:43;3.40;;;2.17;;
7255;SDS011;3669;49.200;9.242;2023-09-19T09:12:14;2.78;;;1.80;;
7255;SDS011;3669;49.200;9.242;2023-09-19T09:14:45;2.45;;;2.00;;
7255;SDS011;3669;49.200;9.242;2023-09-19T09:17:16;2.63;;;2.08;;
7255;SDS011;3669;49.200;9.242;2023-09-19T09:19:49;3.97;;;2.10;;
7255;SDS011;3669;49.200;9.242;2023-09-19T09:22:17;3.45;;;2.20;;
7255;SDS011;3669;49.200;9.242;2023-09-19T09:24:59;2.83;;;1.95;;
7255;SDS011;3669;49.200;9.242;2023-09-19T09:27:30;3.15;;;2.10;;
7255;SDS011;3669;49.200;9.242;2023-09-19T09:29:59;3.08;;;1.85;;
7255;SDS011;3669;49.200;9.242;2023-09-19T09:32:27;2.42;;;2.08;;
7255;SDS011;3669;49.200;9.242;2023-09-19T09:34:56;4.18;;;1.98;;
7255;SDS011;3669;49.200;9.242;2023-09-19T09:37:24;2.67;;;2.00;;
7255;SDS011;3669;49.200;9.242;2023-09-19T09:39:56;3.05;;;1.80;;
7255;SDS011;3669;49.200;9.242;2023-09-19T09:48:03;2.63;;;2.00;;
7255;SDS011;3669;49.200;9.242;2023-09-19T09:50:49;3.65;;;1.90;;
7255;SDS011;3669;49.200;9.242;2023-09-19T09:53:23;3.78;;;2.10;;
7255;SDS011;3669;49.200;9.242;2023-09-19T09:55:59;4.90;;;2.50;;
7255;SDS011;3669;49.200;9.242;2023-09-19T09:58:27;3.83;;;2.40;;
7255;SDS011;3669;49.200;9.242;2023-09-19T10:00:59;4.95;;;2.20;;
7255;SDS011;3669;49.200;9.242;2023-09-19T10:03:36;4.22;;;2.17;;
7255;SDS011;3669;49.200;9.242;2023-09-19T10:06:10;3.70;;;2.30;;
7255;SDS011;3669;49.200;9.242;2023-09-19T10:09:00;2.70;;;2.22;;
7255;SDS011;3669;49.200;9.242;2023-09-19T10:11:42;3.65;;;1.90;;
7255;SDS011;3669;49.200;9.242;2023-09-19T10:14:10;5.15;;;2.00;;
7255;SDS011;3669;49.200;9.242;2023-09-19T10:16:48;3.63;;;2.20;;
7255;SDS011;3669;49.200;9.242;2023-09-19T10:19:28;3.10;;;2.25;;
7255;SDS011;3669;49.200;9.242;2023-09-19T10:21:59;4.82;;;1.83;;
7255;SDS011;3669;49.200;9.242;2023-09-19T10:24:28;2.58;;;1.98;;
7255;SDS011;3669;49.200;9.242;2023-09-19T10:26:57;3.20;;;1.75;;
7255;SDS011;3669;49.200;9.242;2023-09-19T10:29:24;2.30;;;1.63;;
7255;SDS011;3669;49.200;9.242;2023-09-19T10:31:52;2.20;;;1.75;;
7255;SDS011;3669;49.200;9.242;2023-09-19T10:34:19;2.78;;;1.90;;
7255;SDS011;3669;49.200;9.242;2023-09-19T10:36:48;11.85;;;11.23;;
7255;SDS011;3669;49.200;9.242;2023-09-19T10:39:16;32.00;;;30.42;;
7255;SDS011;3669;49.200;9.242;2023-09-19T10:41:49;33.60;;;31.80;;
7255;SDS011;3669;49.200;9.242;2023-09-19T10:44:23;31.60;;;30.20;;
7255;SDS011;3669;49.200;9.242;2023-09-19T10:46:51;25.00;;;23.70;;
7255;SDS011;3669;49.200;9.242;2023-09-19T10:49:20;21.45;;;20.45;;
7255;SDS011;3669;49.200;9.242;2023-09-19T10:51:47;21.25;;;20.08;;
7255;SDS011;3669;49.200;9.242;2023-09-19T10:54:18;8.35;;;7.80;;
7255;SDS011;3669;49.200;9.242;2023-09-19T10:56:49;3.05;;;2.80;;
7255;SDS011;3669;49.200;9.242;2023-09-19T10:59:18;3.92;;;2.05;;
7255;SDS011;3669;49.200;9.242;2023-09-19T11:01:50;2.60;;;1.95;;
7255;SDS011;3669;49.200;9.242;2023-09-19T11:04:24;3.33;;;1.88;;
7255;SDS011;3669;49.200;9.242;2023-09-19T11:07:00;3.80;;;1.77;;
7255;SDS011;3669;49.200;9.242;2023-09-19T11:09:43;2.13;;;1.58;;
7255;SDS011;3669;49.200;9.242;2023-09-19T11:15:07;2.28;;;1.60;;
7255;SDS011;3669;49.200;9.242;2023-09-19T11:17:34;1.88;;;1.60;;
7255;SDS011;3669;49.200;9.242;2023-09-19T11:30:44;11.85;;;11.13;;
7255;SDS011;3669;49.200;9.242;2023-09-19T11:33:29;30.48;;;28.80;;
7255;SDS011;3669;49.200;9.242;2023-09-19T11:43:51;2.33;;;1.80;;
7255;SDS011;3669;49.200;9.242;2023-09-19T11:46:24;2.75;;;1.70;;
7255;SDS011;3669;49.200;9.242;2023-09-19T11:48:51;2.50;;;1.60;;
7255;SDS011;3669;49.200;9.242;2023-09-19T11:51:23;2.72;;;1.80;;
7255;SDS011;3669;49.200;9.242;2023-09-19T11:53:54;1.95;;;1.63;;
7255;SDS011;3669;49.200;9.242;2023-09-19T11:56:22;2.58;;;1.80;;
7255;SDS011;3669;49.200;9.242;2023-09-19T11:58:51;3.80;;;1.70;;
7255;SDS011;3669;49.200;9.242;2023-09-19T12:01:28;2.00;;;1.60;;
7255;SDS011;3669;49.200;9.242;2023-09-19T12:03:57;1.90;;;1.60;;
7255;SDS011;3669;49.200;9.242;2023-09-19T12:06:28;3.00;;;1.90;;
7255;SDS011;3669;49.200;9.242;2023-09-19T12:08:55;3.70;;;2.08;;
7255;SDS011;3669;49.200;9.242;2023-09-19T12:11:30;3.10;;;1.70;;
7255;SDS011;3669;49.200;9.242;2023-09-19T12:14:01;4.45;;;1.80;;
7255;SDS011;3669;49.200;9.242;2023-09-19T12:16:29;2.08;;;1.90;;
7255;SDS011;3669;49.200;9.242;2023-09-19T12:18:59;1.80;;;1.55;;
7255;SDS011;3669;49.200;9.242;2023-09-19T12:21:58;2.83;;;1.75;;
7255;SDS011;3669;49.200;9.242;2023-09-19T12:24:29;3.50;;;1.60;;
7255;SDS011;3669;49.200;9.242;2023-09-19T12:27:03;3.05;;;1.77;;
7255;SDS011;3669;49.200;9.242;2023-09-19T12:29:31;2.35;;;1.65;;
7255;SDS011;3669;49.200;9.242;2023-09-19T12:32:02;3.33;;;1.90;;
7255;SDS011;3669;49.200;9.242;2023-09-19T12:34:30;2.17;;;1.52;;
7255;SDS011;3669;49.200;9.242;2023-09-19T12:37:07;2.13;;;1.60;;
7255;SDS011;3669;49.200;9.242;2023-09-19T12:39:42;1.75;;;1.40;;
7255;SDS011;3669;49.200;9.242;2023-09-19T12:42:15;2.65;;;1.85;;
7255;SDS011;3669;49.200;9.242;2023-09-19T12:44:44;2.10;;;1.63;;
7255;SDS011;3669;49.200;9.242;2023-09-19T12:47:12;1.83;;;1.67;;
7255;SDS011;3669;49.200;9.242;2023-09-19T12:52:33;3.65;;;2.10;;
7255;SDS011;3669;49.200;9.242;2023-09-19T12:55:02;4.47;;;2.00;;
7255;SDS011;3669;49.200;9.242;2023-09-19T12:57:41;1.92;;;1.60;;
7255;SDS011;3669;49.200;9.242;2023-09-19T13:00:09;2.15;;;1.90;;
7255;SDS011;3669;49.200;9.242;2023-09-19T13:02:37;2.88;;;1.65;;
7255;SDS011;3669;49.200;9.242;2023-09-19T13:05:04;2.42;;;1.92;;
7255;SDS011;3669;49.200;9.242;2023-09-19T13:07:43;12.25;;;11.50;;
7255;SDS011;3669;49.200;9.242;2023-09-19T13:10:11;4.03;;;1.70;;
7255;SDS011;3669;49.200;9.242;2023-09-19T13:12:42;2.22;;;1.60;;
7255;SDS011;3669;49.200;9.242;2023-09-19T13:15:14;3.35;;;1.77;;
7255;SDS011;3669;49.200;9.242;2023-09-19T13:17:51;3.13;;;1.70;;
7255;SDS011;3669;49.200;9.242;2023-09-19T13:20:23;2.58;;;1.80;;
7255;SDS011;3669;49.200;9.242;2023-09-19T13:22:56;28.23;;;26.75;;
7255;SDS011;3669;49.200;9.242;2023-09-19T13:25:35;11.80;;;10.90;;
7255;SDS011;3669;49.200;9.242;2023-09-19T13:28:02;22.88;;;21.58;;
7255;SDS011;3669;49.200;9.242;2023-09-19T13:30:31;19.95;;;19.05;;
7255;SDS011;3669;49.200;9.242;2023-09-19T13:33:05;30.05;;;28.50;;
7255;SDS011;3669;49.200;9.242;2023-09-19T13:35:33;22.90;;;21.88;;
7255;SDS011;3669;49.200;9.242;2023-09-19T13:37:59;27.20;;;25.92;;
7255;SDS011;3669;49.200;9.242;2023-09-19T13:40:26;14.25;;;13.38;;
7255;SDS011;3669;49.200;9.242;2023-09-19T13:42:56;19.30;;;18.15;;
7255;SDS011;3669;49.200;9.242;2023-09-19T13:45:22;3.42;;;2.88;;
7255;SDS011;3669;49.200;9.242;2023-09-19T13:47:56;9.45;;;8.93;;
7255;SDS011;3669;49.200;9.242;2023-09-19T13:50:24;2.65;;;1.95;;
7255;SDS011;3669;49.200;9.242;2023-09-19T13:52:52;2.20;;;1.63;;
7255;SDS011;3669;49.200;9.242;2023-09-19T13:55:19;4.38;;;1.60;;
7255;SDS011;3669;49.200;9.242;2023-09-19T13:57:47;2.13;;;1.80;;
7255;SDS011;3669;49.200;9.242;2023-09-19T14:00:21;4.28;;;1.85;;
7255;SDS011;3669;49.200;9.242;2023-09-19T14:02:49;3.00;;;1.80;;
7255;SDS011;3669;49.200;9.242;2023-09-19T14:05:16;3.25;;;1.90;;
7255;SDS011;3669;49.200;9.242;2023-09-19T14:07:44;1.60;;;1.50;;
7255;SDS011;3669;49.200;9.242;2023-09-19T14:10:12;1.95;;;1.50;;
7255;SDS011;3669;49.200;9.242;2023-09-19T14:12:39;2.83;;;1.70;;
7255;SDS011;3669;49.200;9.242;2023-09-19T14:15:07;3.05;;;2.00;;
7255;SDS011;3669;49.200;9.242;2023-09-19T14:17:34;2.13;;;1.85;;
7255;SDS011;3669;49.200;9.242;2023-09-19T14:20:01;1.65;;;1.50;;
7255;SDS011;3669;49.200;9.242;2023-09-19T14:22:28;2.78;;;1.73;;
7255;SDS011;3669;49.200;9.242;2023-09-19T14:24:55;1.83;;;1.52;;
7255;SDS011;3669;49.200;9.242;2023-09-19T14:27:22;3.33;;;1.67;;
7255;SDS011;3669;49.200;9.242;2023-09-19T14:29:51;2.08;;;1.50;;
7255;SDS011;3669;49.200;9.242;2023-09-19T14:32:18;2.85;;;1.83;;
7255;SDS011;3669;49.200;9.242;2023-09-19T14:34:45;2.10;;;1.60;;
7255;SDS011;3669;49.200;9.242;2023-09-19T14:37:12;2.03;;;1.75;;
7255;SDS011;3669;49.200;9.242;2023-09-19T14:39:40;2.25;;;1.73;;
7255;SDS011;3669;49.200;9.242;2023-09-19T14:42:10;2.13;;;1.75;;
7255;SDS011;3669;49.200;9.242;2023-09-19T14:44:40;3.03;;;1.70;;
7255;SDS011;3669;49.200;9.242;2023-09-19T14:47:07;1.98;;;1.60;;
7255;SDS011;3669;49.200;9.242;2023-09-19T14:49:34;2.55;;;1.70;;
7255;SDS011;3669;49.200;9.242;2023-09-19T14:52:06;1.83;;;1.70;;
7255;SDS011;3669;49.200;9.242;2023-09-19T14:54:34;2.33;;;1.85;;
7255;SDS011;3669;49.200;9.242;2023-09-19T14:57:03;3.03;;;1.95;;
7255;SDS011;3669;49.200;9.242;2023-09-19T14:59:31;2.55;;;1.73;;
7255;SDS011;3669;49.200;9.242;2023-09-19T15:01:58;1.67;;;1.58;;
7255;SDS011;3669;49.200;9.242;2023-09-19T15:04:25;1.60;;;1.40;;
7255;SDS011;3669;49.200;9.242;2023-09-19T15:06:53;2.30;;;1.80;;
7255;SDS011;3669;49.200;9.242;2023-09-19T15:09:24;2.60;;;1.75;;
7255;SDS011;3669;49.200;9.242;2023-09-19T15:11:53;2.42;;;1.75;;
7255;SDS011;3669;49.200;9.242;2023-09-19T15:14:20;1.83;;;1.65;;
7255;SDS011;3669;49.200;9.242;2023-09-19T15:16:48;2.15;;;1.70;;
7255;SDS011;3669;49.200;9.242;2023-09-19T15:19:15;2.83;;;1.70;;
7255;SDS011;3669;49.200;9.242;2023-09-19T15:21:43;2.33;;;1.60;;
7255;SDS011;3669;49.200;9.242;2023-09-19T15:24:10;2.03;;;1.50;;
7255;SDS011;3669;49.200;9.242;2023-09-19T15:26:37;3.05;;;1.85;;
7255;SDS011;3669;49.200;9.242;2023-09-19T15:29:05;2.47;;;1.70;;
7255;SDS011;3669;49.200;9.242;2023-09-19T15:31:33;3.40;;;1.77;;
7255;SDS011;3669;49.200;9.242;2023-09-19T15:34:02;2.42;;;1.45;;
7255;SDS011;3669;49.200;9.242;2023-09-19T15:36:29;2.30;;;1.50;;
7255;SDS011;3669;49.200;9.242;2023-09-19T15:38:57;1.73;;;1.63;;
7255;SDS011;3669;49.200;9.242;2023-09-19T15:41:25;2.17;;;1.60;;
7255;SDS011;3669;49.200;9.242;2023-09-19T15:43:52;1.85;;;1.50;;
7255;SDS011;3669;49.200;9.242;2023-09-19T15:46:20;2.28;;;1.75;;
7255;SDS011;3669;49.200;9.242;2023-09-19T15:48:47;2.10;;;1.80;;
7255;SDS011;3669;49.200;9.242;2023-09-19T15:51:14;7.68;;;7.15;;
7255;SDS011;3669;49.200;9.242;2023-09-19T15:53:47;16.63;;;15.63;;
7255;SDS011;3669;49.200;9.242;2023-09-19T15:56:15;3.75;;;2.25;;
7255;SDS011;3669;49.200;9.242;2023-09-19T15:58:47;12.32;;;11.50;;
7255;SDS011;3669;49.200;9.242;2023-09-19T16:01:14;3.17;;;2.97;;
7255;SDS011;3669;49.200;9.242;2023-09-19T16:03:59;25.58;;;24.40;;
7255;SDS011;3669;49.200;9.242;2023-09-19T16:06:27;3.65;;;1.70;;
7255;SDS011;3669;49.200;9.242;2023-09-19T16:08:57;2.20;;;1.70;;
7255;SDS011;3669;49.200;9.242;2023-09-19T16:11:25;1.60;;;1.35;;
7255;SDS011;3669;49.200;9.242;2023-09-19T16:13:53;2.22;;;1.55;;
7255;SDS011;3669;49.200;9.242;2023-09-19T16:16:20;4.75;;;4.40;;
7255;SDS011;3669;49.200;9.242;2023-09-19T16:18:55;14.10;;;13.30;;
7255;SDS011;3669;49.200;9.242;2023-09-19T16:21:23;15.68;;;14.77;;